sensor_id;sensor_type;location;lat;lon;timestamp;temperature;humidity
1578;DHT22;57623;53.608;10.004;2023-07-28T00:00:27;16.30;99.90
1578;DHT22;57623;53.608;10.004;2023-07-28T00:02:55;16.30;99.90
1578;DHT22;57623;53.608;10.004;2023-07-28T00:05:23;16.30;99.90
1578;DHT22;57623;53.608;10.004;2023-07-28T00:07:53;16.30;99.90
1578;DHT22;57623;53.608;10.004;2023-07-28T00:10:22;16.30;99.90
1578;DHT22;57623;53.608;10.004;2023-07-28T00:12:50;16.30;99.90
1578;DHT22;57623;53.608;10.004;2023-07-28T00:15:18;16.30;99.90
1578;DHT22;57623;53.608;10.004;2023-07-28T00:17:46;16.30;99.90
1578;DHT22;57623;53.608;10.004;2023-07-28T00:20:14;16.30;99.90
1578;DHT22;57623;53.608;10.004;2023-07-28T00:22:42;16.30;99.90
1578;DHT22;57623;53.608;10.004;2023-07-28T00:25:11;16.30;99.90
1578;DHT22;57623;53.608;10.004;2023-07-28T00:27:39;16.30;99.90
1578;DHT22;57623;53.608;10.004;2023-07-28T00:30:09;16.30;99.90
1578;DHT22;57623;53.608;10.004;2023-07-28T00:32:37;16.30;99.90
1578;DHT22;57623;53.608;10.004;2023-07-28T00:35:06;16.30;99.90
1578;DHT22;57623;53.608;10.004;2023-07-28T00:37:34;16.30;99.90
1578;DHT22;57623;53.608;10.004;2023-07-28T00:40:02;16.30;99.90
1578;DHT22;57623;53.608;10.004;2023-07-28T00:42:32;16.30;99.90
1578;DHT22;57623;53.608;10.004;2023-07-28T00:45:03;16.30;99.90
1578;DHT22;57623;53.608;10.004;2023-07-28T00:47:31;16.30;99.90
1578;DHT22;57623;53.608;10.004;2023-07-28T00:49:59;16.30;99.90
1578;DHT22;57623;53.608;10.004;2023-07-28T00:52:27;16.30;99.90
1578;DHT22;57623;53.608;10.004;2023-07-28T00:54:55;16.30;99.90
1578;DHT22;57623;53.608;10.004;2023-07-28T00:57:24;16.20;99.90
1578;DHT22;57623;53.608;10.004;2023-07-28T00:59:53;16.30;99.90
1578;DHT22;57623;53.608;10.004;2023-07-28T01:02:21;16.30;99.90
1578;DHT22;57623;53.608;10.004;2023-07-28T01:04:50;16.30;99.90
1578;DHT22;57623;53.608;10.004;2023-07-28T01:07:26;16.30;99.90
1578;DHT22;57623;53.608;10.004;2023-07-28T01:10:02;16.30;99.90
1578;DHT22;57623;53.608;10.004;2023-07-28T01:12:30;16.30;99.90
1578;DHT22;57623;53.608;10.004;2023-07-28T01:15:00;16.30;99.90
1578;DHT22;57623;53.608;10.004;2023-07-28T01:17:28;16.30;99.90
1578;DHT22;57623;53.608;10.004;2023-07-28T01:19:56;16.30;99.90
1578;DHT22;57623;53.608;10.004;2023-07-28T01:22:46;16.30;99.90
1578;DHT22;57623;53.608;10.004;2023-07-28T01:25:21;16.30;99.90
1578;DHT22;57623;53.608;10.004;2023-07-28T01:27:52;16.30;99.90
1578;DHT22;57623;53.608;10.004;2023-07-28T01:30:21;16.30;99.90
1578;DHT22;57623;53.608;10.004;2023-07-28T01:32:54;16.30;99.90
1578;DHT22;57623;53.608;10.004;2023-07-28T01:35:22;16.30;99.90
1578;DHT22;57623;53.608;10.004;2023-07-28T01:37:50;16.30;99.90
1578;DHT22;57623;53.608;10.004;2023-07-28T01:40:19;16.30;99.90
1578;DHT22;57623;53.608;10.004;2023-07-28T01:42:47;16.30;99.90
1578;DHT22;57623;53.608;10.004;2023-07-28T01:45:16;16.30;99.90
1578;DHT22;57623;53.608;10.004;2023-07-28T01:47:44;16.30;99.90
1578;DHT22;57623;53.608;10.004;2023-07-28T01:50:12;16.30;99.90
1578;DHT22;57623;53.608;10.004;2023-07-28T01:52:40;16.30;99.90
1578;DHT22;57623;53.608;10.004;2023-07-28T01:55:08;16.30;99.90
1578;DHT22;57623;53.608;10.004;2023-07-28T01:57:39;16.30;99.90
1578;DHT22;57623;53.608;10.004;2023-07-28T02:00:07;16.30;99.90
1578;DHT22;57623;53.608;10.004;2023-07-28T02:02:38;16.30;99.90
1578;DHT22;57623;53.608;10.004;2023-07-28T02:05:07;16.30;99.90
1578;DHT22;57623;53.608;10.004;2023-07-28T02:07:35;16.30;99.90
1578;DHT22;57623;53.608;10.004;2023-07-28T02:10:03;16.30;99.90
1578;DHT22;57623;53.608;10.004;2023-07-28T02:12:32;16.30;99.90
1578;DHT22;57623;53.608;10.004;2023-07-28T02:15:00;16.30;99.90
1578;DHT22;57623;53.608;10.004;2023-07-28T02:17:28;16.30;99.90
1578;DHT22;57623;53.608;10.004;2023-07-28T02:19:57;16.30;99.90
1578;DHT22;57623;53.608;10.004;2023-07-28T02:22:25;16.30;99.90
1578;DHT22;57623;53.608;10.004;2023-07-28T02:24:53;16.30;99.90
1578;DHT22;57623;53.608;10.004;2023-07-28T02:27:21;16.30;99.90
1578;DHT22;57623;53.608;10.004;2023-07-28T02:29:49;16.30;99.90
1578;DHT22;57623;53.608;10.004;2023-07-28T02:32:17;16.30;99.90
1578;DHT22;57623;53.608;10.004;2023-07-28T02:34:45;16.30;99.90
1578;DHT22;57623;53.608;10.004;2023-07-28T02:37:15;16.30;99.90
1578;DHT22;57623;53.608;10.004;2023-07-28T02:39:43;16.20;99.90
1578;DHT22;57623;53.608;10.004;2023-07-28T02:42:11;16.30;99.90
1578;DHT22;57623;53.608;10.004;2023-07-28T02:44:40;16.30;99.90
1578;DHT22;57623;53.608;10.004;2023-07-28T02:47:08;16.30;99.90
1578;DHT22;57623;53.608;10.004;2023-07-28T02:49:36;16.30;99.90
1578;DHT22;57623;53.608;10.004;2023-07-28T02:52:04;16.30;99.90
1578;DHT22;57623;53.608;10.004;2023-07-28T02:54:34;16.30;99.90
1578;DHT22;57623;53.608;10.004;2023-07-28T02:57:02;16.30;99.90
1578;DHT22;57623;53.608;10.004;2023-07-28T02:59:30;16.30;99.90
1578;DHT22;57623;53.608;10.004;2023-07-28T03:01:58;16.30;99.90
1578;DHT22;57623;53.608;10.004;2023-07-28T03:04:26;16.30;99.90
1578;DHT22;57623;53.608;10.004;2023-07-28T03:06:54;16.30;99.90
1578;DHT22;57623;53.608;10.004;2023-07-28T03:09:22;16.30;99.90
1578;DHT22;57623;53.608;10.004;2023-07-28T03:11:52;16.30;99.90
1578;DHT22;57623;53.608;10.004;2023-07-28T03:14:20;16.30;99.90
1578;DHT22;57623;53.608;10.004;2023-07-28T03:16:48;16.20;99.90
1578;DHT22;57623;53.608;10.004;2023-07-28T03:19:16;16.20;99.90
1578;DHT22;57623;53.608;10.004;2023-07-28T03:21:44;16.20;99.90
1578;DHT22;57623;53.608;10.004;2023-07-28T03:24:12;16.20;99.90
1578;DHT22;57623;53.608;10.004;2023-07-28T03:26:40;16.20;99.90
1578;DHT22;57623;53.608;10.004;2023-07-28T03:29:09;16.20;99.90
1578;DHT22;57623;53.608;10.004;2023-07-28T03:31:37;16.20;99.90
1578;DHT22;57623;53.608;10.004;2023-07-28T03:34:05;16.20;99.90
1578;DHT22;57623;53.608;10.004;2023-07-28T03:36:33;16.20;99.90
1578;DHT22;57623;53.608;10.004;2023-07-28T03:39:01;16.20;99.90
1578;DHT22;57623;53.608;10.004;2023-07-28T03:41:29;16.20;99.90
1578;DHT22;57623;53.608;10.004;2023-07-28T03:43:57;16.20;99.90
1578;DHT22;57623;53.608;10.004;2023-07-28T03:46:27;16.20;99.90
1578;DHT22;57623;53.608;10.004;2023-07-28T03:48:57;16.10;99.90
1578;DHT22;57623;53.608;10.004;2023-07-28T03:51:26;16.20;99.90
1578;DHT22;57623;53.608;10.004;2023-07-28T03:53:54;16.20;99.90
1578;DHT22;57623;53.608;10.004;2023-07-28T03:56:22;16.10;99.90
1578;DHT22;57623;53.608;10.004;2023-07-28T03:58:50;16.20;99.90
1578;DHT22;57623;53.608;10.004;2023-07-28T04:01:20;16.20;99.90
1578;DHT22;57623;53.608;10.004;2023-07-28T04:03:50;16.20;99.90
1578;DHT22;57623;53.608;10.004;2023-07-28T04:06:18;16.20;99.90
1578;DHT22;57623;53.608;10.004;2023-07-28T04:08:46;16.20;99.90
1578;DHT22;57623;53.608;10.004;2023-07-28T04:11:14;16.20;99.90
1578;DHT22;57623;53.608;10.004;2023-07-28T04:13:42;16.20;99.90
1578;DHT22;57623;53.608;10.004;2023-07-28T04:16:09;16.20;99.90
1578;DHT22;57623;53.608;10.004;2023-07-28T04:18:37;16.20;99.90
1578;DHT22;57623;53.608;10.004;2023-07-28T04:21:07;16.20;99.90
1578;DHT22;57623;53.608;10.004;2023-07-28T04:23:35;16.20;99.90
1578;DHT22;57623;53.608;10.004;2023-07-28T04:26:03;16.20;99.90
1578;DHT22;57623;53.608;10.004;2023-07-28T04:28:31;16.20;99.90
1578;DHT22;57623;53.608;10.004;2023-07-28T04:30:59;16.20;99.90
1578;DHT22;57623;53.608;10.004;2023-07-28T04:33:27;16.20;99.90
1578;DHT22;57623;53.608;10.004;2023-07-28T04:35:55;16.30;99.90
1578;DHT22;57623;53.608;10.004;2023-07-28T04:38:24;16.30;99.90
1578;DHT22;57623;53.608;10.004;2023-07-28T04:40:52;16.30;99.90
1578;DHT22;57623;53.608;10.004;2023-07-28T04:43:20;16.30;99.90
1578;DHT22;57623;53.608;10.004;2023-07-28T04:45:48;16.30;99.90
1578;DHT22;57623;53.608;10.004;2023-07-28T04:48:16;16.30;99.90
1578;DHT22;57623;53.608;10.004;2023-07-28T04:50:44;16.40;99.90
1578;DHT22;57623;53.608;10.004;2023-07-28T04:53:12;16.30;99.90
1578;DHT22;57623;53.608;10.004;2023-07-28T04:55:42;16.40;99.90
1578;DHT22;57623;53.608;10.004;2023-07-28T04:58:10;16.30;99.90
1578;DHT22;57623;53.608;10.004;2023-07-28T05:00:38;16.30;99.90
1578;DHT22;57623;53.608;10.004;2023-07-28T05:03:06;16.40;99.90
1578;DHT22;57623;53.608;10.004;2023-07-28T05:05:33;16.40;99.90
1578;DHT22;57623;53.608;10.004;2023-07-28T05:08:01;16.40;99.90
1578;DHT22;57623;53.608;10.004;2023-07-28T05:10:29;16.40;99.90
1578;DHT22;57623;53.608;10.004;2023-07-28T05:12:59;16.40;99.90
1578;DHT22;57623;53.608;10.004;2023-07-28T05:15:27;16.40;99.90
1578;DHT22;57623;53.608;10.004;2023-07-28T05:17:55;16.50;99.90
1578;DHT22;57623;53.608;10.004;2023-07-28T05:20:23;16.50;99.90
1578;DHT22;57623;53.608;10.004;2023-07-28T05:22:51;16.50;99.90
1578;DHT22;57623;53.608;10.004;2023-07-28T05:25:19;16.60;99.90
1578;DHT22;57623;53.608;10.004;2023-07-28T05:27:46;16.60;99.90
1578;DHT22;57623;53.608;10.004;2023-07-28T05:30:16;16.70;99.90
1578;DHT22;57623;53.608;10.004;2023-07-28T05:32:44;16.70;99.90
1578;DHT22;57623;53.608;10.004;2023-07-28T05:35:13;16.70;99.90
1578;DHT22;57623;53.608;10.004;2023-07-28T05:37:42;16.70;99.90
1578;DHT22;57623;53.608;10.004;2023-07-28T05:40:11;16.70;99.90
1578;DHT22;57623;53.608;10.004;2023-07-28T05:42:39;16.70;99.90
1578;DHT22;57623;53.608;10.004;2023-07-28T05:45:09;16.70;99.90
1578;DHT22;57623;53.608;10.004;2023-07-28T05:47:38;16.80;99.90
1578;DHT22;57623;53.608;10.004;2023-07-28T05:50:07;16.70;99.90
1578;DHT22;57623;53.608;10.004;2023-07-28T05:52:35;16.70;99.90
1578;DHT22;57623;53.608;10.004;2023-07-28T05:55:03;16.80;99.90
1578;DHT22;57623;53.608;10.004;2023-07-28T05:57:31;16.70;99.90
1578;DHT22;57623;53.608;10.004;2023-07-28T05:59:59;16.80;99.90
1578;DHT22;57623;53.608;10.004;2023-07-28T06:02:27;16.80;99.90
1578;DHT22;57623;53.608;10.004;2023-07-28T06:04:57;16.80;99.90
1578;DHT22;57623;53.608;10.004;2023-07-28T06:07:25;16.90;99.90
1578;DHT22;57623;53.608;10.004;2023-07-28T06:09:53;16.90;99.90
1578;DHT22;57623;53.608;10.004;2023-07-28T06:12:21;16.90;99.90
1578;DHT22;57623;53.608;10.004;2023-07-28T06:14:49;17.00;99.90
1578;DHT22;57623;53.608;10.004;2023-07-28T06:17:17;17.00;99.90
1578;DHT22;57623;53.608;10.004;2023-07-28T06:19:45;17.00;99.90
1578;DHT22;57623;53.608;10.004;2023-07-28T06:22:15;17.00;99.90
1578;DHT22;57623;53.608;10.004;2023-07-28T06:24:42;17.10;99.90
1578;DHT22;57623;53.608;10.004;2023-07-28T06:27:11;17.10;99.90
1578;DHT22;57623;53.608;10.004;2023-07-28T06:29:39;17.10;99.90
1578;DHT22;57623;53.608;10.004;2023-07-28T06:32:07;17.20;99.90
1578;DHT22;57623;53.608;10.004;2023-07-28T06:34:35;17.20;99.90
1578;DHT22;57623;53.608;10.004;2023-07-28T06:37:04;17.30;99.90
1578;DHT22;57623;53.608;10.004;2023-07-28T06:39:33;17.30;99.90
1578;DHT22;57623;53.608;10.004;2023-07-28T06:42:01;17.40;99.90
1578;DHT22;57623;53.608;10.004;2023-07-28T06:44:29;17.40;99.90
1578;DHT22;57623;53.608;10.004;2023-07-28T06:46:57;17.40;99.90
1578;DHT22;57623;53.608;10.004;2023-07-28T06:49:25;17.40;99.90
1578;DHT22;57623;53.608;10.004;2023-07-28T06:51:53;17.40;99.90
1578;DHT22;57623;53.608;10.004;2023-07-28T06:54:21;17.40;99.90
1578;DHT22;57623;53.608;10.004;2023-07-28T06:56:50;17.40;99.90
1578;DHT22;57623;53.608;10.004;2023-07-28T06:59:18;17.40;99.90
1578;DHT22;57623;53.608;10.004;2023-07-28T07:01:48;17.50;99.90
1578;DHT22;57623;53.608;10.004;2023-07-28T07:04:17;17.50;99.90
1578;DHT22;57623;53.608;10.004;2023-07-28T07:06:45;17.60;99.90
1578;DHT22;57623;53.608;10.004;2023-07-28T07:09:13;17.70;99.90
1578;DHT22;57623;53.608;10.004;2023-07-28T07:11:41;17.70;99.90
1578;DHT22;57623;53.608;10.004;2023-07-28T07:14:11;17.80;99.90
1578;DHT22;57623;53.608;10.004;2023-07-28T07:16:39;17.80;99.90
1578;DHT22;57623;53.608;10.004;2023-07-28T07:19:07;17.80;99.90
1578;DHT22;57623;53.608;10.004;2023-07-28T07:21:35;17.80;99.90
1578;DHT22;57623;53.608;10.004;2023-07-28T07:24:04;17.90;99.90
1578;DHT22;57623;53.608;10.004;2023-07-28T07:26:32;17.90;99.90
1578;DHT22;57623;53.608;10.004;2023-07-28T07:29:00;17.90;99.90
1578;DHT22;57623;53.608;10.004;2023-07-28T07:31:30;18.00;99.90
1578;DHT22;57623;53.608;10.004;2023-07-28T07:33:59;18.00;99.90
1578;DHT22;57623;53.608;10.004;2023-07-28T07:36:27;18.00;99.90
1578;DHT22;57623;53.608;10.004;2023-07-28T07:38:55;18.00;99.90
1578;DHT22;57623;53.608;10.004;2023-07-28T07:41:23;18.10;99.90
1578;DHT22;57623;53.608;10.004;2023-07-28T07:43:53;18.10;99.90
1578;DHT22;57623;53.608;10.004;2023-07-28T07:46:21;18.00;99.90
1578;DHT22;57623;53.608;10.004;2023-07-28T07:48:51;18.00;99.90
1578;DHT22;57623;53.608;10.004;2023-07-28T07:51:19;18.00;99.90
1578;DHT22;57623;53.608;10.004;2023-07-28T07:53:47;18.00;99.90
1578;DHT22;57623;53.608;10.004;2023-07-28T07:56:15;18.10;99.90
1578;DHT22;57623;53.608;10.004;2023-07-28T07:58:43;18.10;99.90
1578;DHT22;57623;53.608;10.004;2023-07-28T08:01:11;18.10;99.90
1578;DHT22;57623;53.608;10.004;2023-07-28T08:03:39;18.20;99.90
1578;DHT22;57623;53.608;10.004;2023-07-28T08:06:09;18.20;99.90
1578;DHT22;57623;53.608;10.004;2023-07-28T08:08:38;18.20;99.90
1578;DHT22;57623;53.608;10.004;2023-07-28T08:11:10;18.30;99.90
1578;DHT22;57623;53.608;10.004;2023-07-28T08:13:38;18.40;99.90
1578;DHT22;57623;53.608;10.004;2023-07-28T08:16:06;18.40;99.90
1578;DHT22;57623;53.608;10.004;2023-07-28T08:18:34;18.40;99.90
1578;DHT22;57623;53.608;10.004;2023-07-28T08:21:02;18.50;99.90
1578;DHT22;57623;53.608;10.004;2023-07-28T08:23:32;18.50;99.90
1578;DHT22;57623;53.608;10.004;2023-07-28T08:26:00;18.50;99.90
1578;DHT22;57623;53.608;10.004;2023-07-28T08:28:28;18.60;99.90
1578;DHT22;57623;53.608;10.004;2023-07-28T08:30:56;18.60;99.90
1578;DHT22;57623;53.608;10.004;2023-07-28T08:33:25;18.50;99.90
1578;DHT22;57623;53.608;10.004;2023-07-28T08:35:53;18.50;99.90
1578;DHT22;57623;53.608;10.004;2023-07-28T08:38:21;18.60;99.90
1578;DHT22;57623;53.608;10.004;2023-07-28T08:40:51;18.60;99.90
1578;DHT22;57623;53.608;10.004;2023-07-28T08:43:19;18.50;99.90
1578;DHT22;57623;53.608;10.004;2023-07-28T08:45:47;18.50;99.90
1578;DHT22;57623;53.608;10.004;2023-07-28T08:48:15;18.50;99.90
1578;DHT22;57623;53.608;10.004;2023-07-28T08:50:43;18.50;99.90
1578;DHT22;57623;53.608;10.004;2023-07-28T08:53:11;18.40;99.90
1578;DHT22;57623;53.608;10.004;2023-07-28T08:55:39;18.40;99.90
1578;DHT22;57623;53.608;10.004;2023-07-28T08:58:16;18.40;99.90
1578;DHT22;57623;53.608;10.004;2023-07-28T09:00:44;18.40;99.90
1578;DHT22;57623;53.608;10.004;2023-07-28T09:03:13;18.50;99.90
1578;DHT22;57623;53.608;10.004;2023-07-28T09:05:42;18.50;99.90
1578;DHT22;57623;53.608;10.004;2023-07-28T09:08:11;18.60;99.90
1578;DHT22;57623;53.608;10.004;2023-07-28T09:10:41;18.70;99.90
1578;DHT22;57623;53.608;10.004;2023-07-28T09:13:10;18.80;99.90
1578;DHT22;57623;53.608;10.004;2023-07-28T09:15:43;18.90;99.90
1578;DHT22;57623;53.608;10.004;2023-07-28T09:18:12;19.00;99.90
1578;DHT22;57623;53.608;10.004;2023-07-28T09:20:41;19.10;99.90
1578;DHT22;57623;53.608;10.004;2023-07-28T09:23:12;19.20;99.90
1578;DHT22;57623;53.608;10.004;2023-07-28T09:25:41;19.20;99.90
1578;DHT22;57623;53.608;10.004;2023-07-28T09:28:09;19.10;99.90
1578;DHT22;57623;53.608;10.004;2023-07-28T09:30:46;19.10;99.90
1578;DHT22;57623;53.608;10.004;2023-07-28T09:33:29;19.10;99.90
1578;DHT22;57623;53.608;10.004;2023-07-28T09:36:07;19.20;99.90
1578;DHT22;57623;53.608;10.004;2023-07-28T09:38:37;19.20;99.90
1578;DHT22;57623;53.608;10.004;2023-07-28T09:41:06;19.20;99.90
1578;DHT22;57623;53.608;10.004;2023-07-28T09:43:36;19.30;99.90
1578;DHT22;57623;53.608;10.004;2023-07-28T09:46:07;19.30;99.90
1578;DHT22;57623;53.608;10.004;2023-07-28T09:48:38;19.40;99.90
1578;DHT22;57623;53.608;10.004;2023-07-28T09:51:11;19.40;99.90
1578;DHT22;57623;53.608;10.004;2023-07-28T09:53:44;19.50;99.90
1578;DHT22;57623;53.608;10.004;2023-07-28T09:56:14;19.50;99.90
1578;DHT22;57623;53.608;10.004;2023-07-28T09:58:49;19.50;99.90
1578;DHT22;57623;53.608;10.004;2023-07-28T10:01:20;19.60;99.90
1578;DHT22;57623;53.608;10.004;2023-07-28T10:03:49;19.70;99.90
1578;DHT22;57623;53.608;10.004;2023-07-28T10:06:17;19.70;99.90
1578;DHT22;57623;53.608;10.004;2023-07-28T10:08:46;19.70;99.90
1578;DHT22;57623;53.608;10.004;2023-07-28T10:11:15;19.80;99.90
1578;DHT22;57623;53.608;10.004;2023-07-28T10:13:44;20.00;99.90
1578;DHT22;57623;53.608;10.004;2023-07-28T10:16:15;20.10;99.90
1578;DHT22;57623;53.608;10.004;2023-07-28T10:18:53;20.20;99.90
1578;DHT22;57623;53.608;10.004;2023-07-28T10:21:22;20.40;99.90
1578;DHT22;57623;53.608;10.004;2023-07-28T10:23:55;20.50;99.90
1578;DHT22;57623;53.608;10.004;2023-07-28T10:26:32;20.60;99.90
1578;DHT22;57623;53.608;10.004;2023-07-28T10:29:10;20.80;99.90
1578;DHT22;57623;53.608;10.004;2023-07-28T10:31:49;20.80;99.90
1578;DHT22;57623;53.608;10.004;2023-07-28T10:34:19;20.80;99.90
1578;DHT22;57623;53.608;10.004;2023-07-28T10:36:56;20.80;99.90
1578;DHT22;57623;53.608;10.004;2023-07-28T10:39:24;20.80;99.90
1578;DHT22;57623;53.608;10.004;2023-07-28T10:42:03;20.70;99.90
1578;DHT22;57623;53.608;10.004;2023-07-28T10:44:32;20.60;99.90
1578;DHT22;57623;53.608;10.004;2023-07-28T10:47:02;20.50;99.90
1578;DHT22;57623;53.608;10.004;2023-07-28T10:49:32;20.50;99.90
1578;DHT22;57623;53.608;10.004;2023-07-28T10:52:01;20.40;99.90
1578;DHT22;57623;53.608;10.004;2023-07-28T10:54:31;20.50;99.90
1578;DHT22;57623;53.608;10.004;2023-07-28T10:57:02;20.40;99.90
1578;DHT22;57623;53.608;10.004;2023-07-28T10:59:30;20.40;99.90
1578;DHT22;57623;53.608;10.004;2023-07-28T11:01:58;20.40;99.90
1578;DHT22;57623;53.608;10.004;2023-07-28T11:04:26;20.50;99.90
1578;DHT22;57623;53.608;10.004;2023-07-28T11:06:56;20.50;99.90
1578;DHT22;57623;53.608;10.004;2023-07-28T11:09:24;20.50;99.90
1578;DHT22;57623;53.608;10.004;2023-07-28T11:11:52;20.60;99.90
1578;DHT22;57623;53.608;10.004;2023-07-28T11:14:20;20.70;99.90
1578;DHT22;57623;53.608;10.004;2023-07-28T11:16:49;20.70;99.90
1578;DHT22;57623;53.608;10.004;2023-07-28T11:19:17;20.80;99.90
1578;DHT22;57623;53.608;10.004;2023-07-28T11:21:52;20.80;99.90
1578;DHT22;57623;53.608;10.004;2023-07-28T11:24:21;20.80;99.90
1578;DHT22;57623;53.608;10.004;2023-07-28T11:26:50;20.80;99.90
1578;DHT22;57623;53.608;10.004;2023-07-28T11:29:19;21.00;99.90
1578;DHT22;57623;53.608;10.004;2023-07-28T11:31:48;21.20;99.90
1578;DHT22;57623;53.608;10.004;2023-07-28T11:34:16;21.40;99.90
1578;DHT22;57623;53.608;10.004;2023-07-28T11:36:45;21.40;99.90
1578;DHT22;57623;53.608;10.004;2023-07-28T11:39:13;21.40;99.90
1578;DHT22;57623;53.608;10.004;2023-07-28T11:41:43;21.40;99.90
1578;DHT22;57623;53.608;10.004;2023-07-28T11:44:15;21.40;99.90
1578;DHT22;57623;53.608;10.004;2023-07-28T11:46:43;21.40;99.90
1578;DHT22;57623;53.608;10.004;2023-07-28T11:49:14;21.40;99.90
1578;DHT22;57623;53.608;10.004;2023-07-28T11:51:44;21.40;99.90
1578;DHT22;57623;53.608;10.004;2023-07-28T11:54:13;21.40;99.90
1578;DHT22;57623;53.608;10.004;2023-07-28T11:56:44;21.40;99.90
1578;DHT22;57623;53.608;10.004;2023-07-28T11:59:15;21.30;99.90
1578;DHT22;57623;53.608;10.004;2023-07-28T12:01:53;21.30;99.90
1578;DHT22;57623;53.608;10.004;2023-07-28T12:04:25;21.30;99.90
1578;DHT22;57623;53.608;10.004;2023-07-28T12:07:01;21.40;99.90
1578;DHT22;57623;53.608;10.004;2023-07-28T12:09:32;21.50;99.90
1578;DHT22;57623;53.608;10.004;2023-07-28T12:12:02;21.50;99.90
1578;DHT22;57623;53.608;10.004;2023-07-28T12:14:32;21.50;99.90
1578;DHT22;57623;53.608;10.004;2023-07-28T12:17:12;21.50;99.90
1578;DHT22;57623;53.608;10.004;2023-07-28T12:19:55;21.60;99.90
1578;DHT22;57623;53.608;10.004;2023-07-28T12:22:23;21.60;99.90
1578;DHT22;57623;53.608;10.004;2023-07-28T12:24:51;21.60;99.90
1578;DHT22;57623;53.608;10.004;2023-07-28T12:27:21;21.60;99.90
1578;DHT22;57623;53.608;10.004;2023-07-28T12:29:58;21.60;99.90
1578;DHT22;57623;53.608;10.004;2023-07-28T12:32:30;21.70;99.90
1578;DHT22;57623;53.608;10.004;2023-07-28T12:35:01;21.80;99.90
1578;DHT22;57623;53.608;10.004;2023-07-28T12:37:32;22.00;99.90
1578;DHT22;57623;53.608;10.004;2023-07-28T12:40:04;22.00;99.90
1578;DHT22;57623;53.608;10.004;2023-07-28T12:42:34;22.10;99.90
1578;DHT22;57623;53.608;10.004;2023-07-28T12:45:06;22.10;99.90
1578;DHT22;57623;53.608;10.004;2023-07-28T12:47:39;22.10;99.90
1578;DHT22;57623;53.608;10.004;2023-07-28T12:50:07;22.10;99.90
1578;DHT22;57623;53.608;10.004;2023-07-28T12:52:39;22.10;99.90
1578;DHT22;57623;53.608;10.004;2023-07-28T12:55:11;22.10;99.90
1578;DHT22;57623;53.608;10.004;2023-07-28T12:57:43;22.10;99.90
1578;DHT22;57623;53.608;10.004;2023-07-28T13:00:12;22.10;99.90
1578;DHT22;57623;53.608;10.004;2023-07-28T13:02:44;22.00;99.90
1578;DHT22;57623;53.608;10.004;2023-07-28T13:05:13;22.00;99.90
1578;DHT22;57623;53.608;10.004;2023-07-28T13:07:42;22.10;99.90
1578;DHT22;57623;53.608;10.004;2023-07-28T13:10:13;22.10;99.90
1578;DHT22;57623;53.608;10.004;2023-07-28T13:12:45;22.10;99.90
1578;DHT22;57623;53.608;10.004;2023-07-28T13:15:16;22.00;99.90
1578;DHT22;57623;53.608;10.004;2023-07-28T13:17:44;21.80;99.90
1578;DHT22;57623;53.608;10.004;2023-07-28T13:20:12;21.70;99.90
1578;DHT22;57623;53.608;10.004;2023-07-28T13:22:40;21.70;99.90
1578;DHT22;57623;53.608;10.004;2023-07-28T13:25:08;21.70;99.90
1578;DHT22;57623;53.608;10.004;2023-07-28T13:27:36;21.70;99.90
1578;DHT22;57623;53.608;10.004;2023-07-28T13:30:07;21.70;99.90
1578;DHT22;57623;53.608;10.004;2023-07-28T13:32:35;21.70;99.90
1578;DHT22;57623;53.608;10.004;2023-07-28T13:35:04;21.90;99.90
1578;DHT22;57623;53.608;10.004;2023-07-28T13:37:32;22.00;99.90
1578;DHT22;57623;53.608;10.004;2023-07-28T13:40:00;22.10;99.90
1578;DHT22;57623;53.608;10.004;2023-07-28T13:42:28;22.20;99.90
1578;DHT22;57623;53.608;10.004;2023-07-28T13:44:56;22.20;99.90
1578;DHT22;57623;53.608;10.004;2023-07-28T13:47:26;22.20;99.90
1578;DHT22;57623;53.608;10.004;2023-07-28T13:49:54;22.20;99.90
1578;DHT22;57623;53.608;10.004;2023-07-28T13:52:22;22.40;99.90
1578;DHT22;57623;53.608;10.004;2023-07-28T13:54:50;22.50;99.90
1578;DHT22;57623;53.608;10.004;2023-07-28T13:57:21;22.70;99.90
1578;DHT22;57623;53.608;10.004;2023-07-28T13:59:49;22.80;99.90
1578;DHT22;57623;53.608;10.004;2023-07-28T14:02:17;22.90;99.90
1578;DHT22;57623;53.608;10.004;2023-07-28T14:04:47;22.90;99.90
1578;DHT22;57623;53.608;10.004;2023-07-28T14:07:15;22.90;99.90
1578;DHT22;57623;53.608;10.004;2023-07-28T14:09:43;22.90;99.90
1578;DHT22;57623;53.608;10.004;2023-07-28T14:12:11;22.90;99.90
1578;DHT22;57623;53.608;10.004;2023-07-28T14:14:39;22.90;99.90
1578;DHT22;57623;53.608;10.004;2023-07-28T14:17:07;22.80;99.90
1578;DHT22;57623;53.608;10.004;2023-07-28T14:19:37;22.90;99.90
1578;DHT22;57623;53.608;10.004;2023-07-28T14:22:07;22.90;99.90
1578;DHT22;57623;53.608;10.004;2023-07-28T14:24:35;22.80;99.90
1578;DHT22;57623;53.608;10.004;2023-07-28T14:27:04;22.90;99.90
1578;DHT22;57623;53.608;10.004;2023-07-28T14:29:32;22.80;99.90
1578;DHT22;57623;53.608;10.004;2023-07-28T14:32:00;22.80;99.90
1578;DHT22;57623;53.608;10.004;2023-07-28T14:34:28;22.80;99.90
1578;DHT22;57623;53.608;10.004;2023-07-28T14:36:56;22.90;99.90
1578;DHT22;57623;53.608;10.004;2023-07-28T14:39:26;23.00;99.90
1578;DHT22;57623;53.608;10.004;2023-07-28T14:41:53;23.00;99.90
1578;DHT22;57623;53.608;10.004;2023-07-28T14:44:22;23.00;99.90
1578;DHT22;57623;53.608;10.004;2023-07-28T14:46:49;23.10;99.90
1578;DHT22;57623;53.608;10.004;2023-07-28T14:49:18;23.20;99.90
1578;DHT22;57623;53.608;10.004;2023-07-28T14:51:46;23.40;99.90
1578;DHT22;57623;53.608;10.004;2023-07-28T14:54:14;23.60;99.90
1578;DHT22;57623;53.608;10.004;2023-07-28T14:56:43;23.50;99.90
1578;DHT22;57623;53.608;10.004;2023-07-28T14:59:11;23.50;99.90
1578;DHT22;57623;53.608;10.004;2023-07-28T15:01:39;23.40;99.90
1578;DHT22;57623;53.608;10.004;2023-07-28T15:04:07;23.30;99.90
1578;DHT22;57623;53.608;10.004;2023-07-28T15:06:37;23.40;99.90
1578;DHT22;57623;53.608;10.004;2023-07-28T15:09:05;23.40;99.90
1578;DHT22;57623;53.608;10.004;2023-07-28T15:11:33;23.30;99.90
1578;DHT22;57623;53.608;10.004;2023-07-28T15:14:03;23.20;99.90
1578;DHT22;57623;53.608;10.004;2023-07-28T15:16:33;23.20;99.90
1578;DHT22;57623;53.608;10.004;2023-07-28T15:19:01;23.20;99.90
1578;DHT22;57623;53.608;10.004;2023-07-28T15:21:29;23.30;99.90
1578;DHT22;57623;53.608;10.004;2023-07-28T15:23:57;23.50;99.90
1578;DHT22;57623;53.608;10.004;2023-07-28T15:26:25;23.70;99.90
1578;DHT22;57623;53.608;10.004;2023-07-28T15:28:53;24.10;99.90
1578;DHT22;57623;53.608;10.004;2023-07-28T15:31:24;24.20;99.90
1578;DHT22;57623;53.608;10.004;2023-07-28T15:33:52;24.40;99.90
1578;DHT22;57623;53.608;10.004;2023-07-28T15:36:20;24.60;99.90
1578;DHT22;57623;53.608;10.004;2023-07-28T15:38:48;24.70;99.90
1578;DHT22;57623;53.608;10.004;2023-07-28T15:41:16;24.90;99.90